Time;durP1;ratioP1;P1;durP2;ratioP2;P2;SDS_P1;SDS_P2;PMS_P1;PMS_P2;Temp;Humidity;BMP_temperature;BMP_pressure;BME280_temperature;BME280_humidity;BME280_pressure;Samples;Min_cycle;Max_cycle;Signal;HPM_P1;HPM_P2
2023/07/11 02:21:54;;;;;;;11.43;6.70;;;19.40;49.80;;;;;;5012588;23;20495;-90
2023/07/11 02:24:24;;;;;;;6.57;6.03;;;19.40;43.10;;;;;;5020086;28;20462;-90
2023/07/11 02:26:51;;;;;;;9.87;6.07;;;;;;;;;;5019227;28;20451;-90
2023/07/11 02:29:18;;;;;;;10.30;6.40;;;;;;;;;;5019327;28;20444;-90
2023/07/11 02:31:45;;;;;;;5.90;5.40;;;19.30;99.90;;;;;;5017510;28;20551;-89
2023/07/11 02:34:12;;;;;;;6.33;5.77;;;;;;;;;;5022354;28;20479;-89
2023/07/11 05:03:44;;;;;;;9.40;8.40;;;20.00;1.00;;;;;;4993235;28;20452;-91
2023/07/11 05:12:12;;;;;;;9.20;8.13;;;;;;;;;;4982127;28;20982;-90
2023/07/11 05:14:41;;;;;;;9.60;8.57;;;20.10;1.00;;;;;;4987451;28;20510;-89
2023/07/11 05:17:08;;;;;;;8.70;7.90;;;20.10;1.00;;;;;;4990240;28;20488;-90
2023/07/11 05:19:35;;;;;;;9.87;8.60;;;20.50;99.90;;;;;;4999645;28;20424;-90
2023/07/11 05:22:02;;;;;;;9.43;7.80;;;20.20;1.00;;;;;;4996806;28;20450;-89
2023/07/11 05:24:32;;;;;;;8.57;7.77;;;20.30;1.00;;;;;;4995180;28;20449;-90
2023/07/11 05:26:59;;;;;;;7.60;6.90;;;;;;;;;;4995772;28;20429;-89
2023/07/11 05:29:27;;;;;;;7.30;6.50;;;;;;;;;;4995124;28;20485;-89
2023/07/11 05:31:55;;;;;;;6.50;6.00;;;20.40;99.90;;;;;;4998673;28;20482;-89
2023/07/11 05:34:22;;;;;;;7.53;6.93;;;;;;;;;;4996671;28;20492;-88
2023/07/11 05:36:49;;;;;;;8.60;7.50;;;20.50;99.90;;;;;;4993280;28;20483;-89
2023/07/11 05:39:17;;;;;;;10.13;7.20;;;20.90;1.00;;;;;;4995307;28;20540;-89
2023/07/11 05:41:52;;;;;;;7.20;6.50;;;20.80;99.90;;;;;;4993578;28;20467;-88
2023/07/11 05:44:19;;;;;;;6.67;5.73;;;20.90;99.90;;;;;;4998131;28;20513;-88
2023/07/11 05:46:46;;;;;;;7.70;6.90;;;20.90;99.90;;;;;;4995985;28;20470;-89
2023/07/11 05:49:15;;;;;;;6.37;5.87;;;21.20;99.90;;;;;;4996493;28;20485;-88
2023/07/11 05:51:42;;;;;;;5.97;5.40;;;21.10;99.90;;;;;;4994535;28;20508;-89
2023/07/11 05:54:09;;;;;;;6.50;5.90;;;18.70;99.90;;;;;;4988521;28;20458;-89
2023/07/11 05:56:36;;;;;;;5.47;5.07;;;21.10;99.90;;;;;;4986258;28;20513;-90
2023/07/11 05:59:03;;;;;;;5.53;5.13;;;;;;;;;;4990650;28;20524;-89
2023/07/11 06:01:33;;;;;;;6.57;4.60;;;21.10;25.50;;;;;;4984908;28;20469;-90
2023/07/11 06:04:07;;;;;;;6.47;5.87;;;21.10;4.30;;;;;;4983416;28;20516;-89
2023/07/11 06:06:42;;;;;;;4.10;3.70;;;21.20;1.00;;;;;;4988232;28;20437;-89
2023/07/11 06:09:11;;;;;;;5.10;4.10;;;21.20;1.00;;;;;;4983152;28;20441;-89
2023/07/11 06:11:38;;;;;;;10.20;4.33;;;21.20;1.00;;;;;;4980039;28;21011;-89
2023/07/11 06:14:05;;;;;;;4.57;4.03;;;21.30;1.00;;;;;;4980618;28;20491;-89
2023/07/11 06:16:32;;;;;;;8.00;4.33;;;21.30;1.00;;;;;;4984610;28;20548;-89
2023/07/11 06:18:59;;;;;;;5.00;4.23;;;21.70;1.00;;;;;;4983888;28;20882;-89
2023/07/11 06:21:26;;;;;;;8.70;4.80;;;21.60;99.90;;;;;;4981362;28;20982;-89
2023/07/11 06:23:54;;;;;;;5.87;4.13;;;21.40;1.00;;;;;;4987143;28;20979;-89
2023/07/11 06:26:21;;;;;;;4.53;3.97;;;21.50;1.00;;;;;;4991042;28;20549;-89
2023/07/11 06:28:48;;;;;;;5.40;3.60;;;;;;;;;;4983463;28;20956;-89
2023/07/11 06:31:16;;;;;;;5.10;3.53;;;21.70;1.00;;;;;;4980898;28;20469;-90
2023/07/11 06:33:43;;;;;;;3.33;3.13;;;;;;;;;;4982467;28;20826;-90
2023/07/11 06:36:10;;;;;;;4.90;3.67;;;21.70;1.00;;;;;;4988011;28;20510;-91
2023/07/11 06:38:38;;;;;;;4.27;3.80;;;;;;;;;;4997583;28;20460;-91
2023/07/11 06:41:06;;;;;;;6.83;3.70;;;21.80;1.00;;;;;;4990529;28;20537;-90
2023/07/11 06:43:33;;;;;;;5.13;2.90;;;;;;;;;;4997137;28;20513;-90
2023/07/11 06:46:01;;;;;;;3.60;3.30;;;;;;;;;;5003166;28;20468;-92
2023/07/11 06:48:35;;;;;;;3.30;3.00;;;22.00;1.00;;;;;;4996893;28;20472;-90
2023/07/11 06:51:03;;;;;;;3.57;3.13;;;22.10;1.00;;;;;;4991068;28;20500;-90
2023/07/11 06:53:32;;;;;;;8.40;3.97;;;22.30;99.90;;;;;;4985370;28;20446;-91
2023/07/11 06:55:59;;;;;;;3.20;2.90;;;;;;;;;;4984814;28;20483;-90
2023/07/11 06:58:29;;;;;;;3.97;3.30;;;22.20;1.00;;;;;;4984312;28;20484;-90
2023/07/11 07:00:57;;;;;;;3.90;3.60;;;22.20;1.00;;;;;;4986168;28;20496;-90
2023/07/11 07:03:25;;;;;;;4.00;3.47;;;;;;;;;;4985941;28;20449;-91
2023/07/11 07:05:52;;;;;;;3.70;3.40;;;;;;;;;;4991905;28;20484;-90
2023/07/11 07:08:20;;;;;;;5.07;2.83;;;22.30;1.00;;;;;;4987862;28;20464;-91
2023/07/11 07:10:48;;;;;;;3.17;2.90;;;22.30;1.00;;;;;;4985962;28;20503;-90
2023/07/11 07:13:16;;;;;;;4.77;4.27;;;22.60;99.90;;;;;;4988069;28;20473;-91
2023/07/11 07:15:48;;;;;;;5.60;3.40;;;22.60;1.00;;;;;;4986425;28;21063;-90
2023/07/11 07:18:15;;;;;;;4.10;3.30;;;;;;;;;;4986087;28;20463;-90
2023/07/11 07:20:44;;;;;;;3.70;3.37;;;22.60;1.00;;;;;;4987173;28;20501;-90
2023/07/11 07:23:11;;;;;;;3.13;2.40;;;;;;;;;;4985496;28;20476;-90
2023/07/11 07:25:39;;;;;;;3.90;3.50;;;22.60;1.00;;;;;;4984349;28;20528;-90
2023/07/11 07:28:07;;;;;;;7.90;3.27;;;;;;;;;;4984836;28;20457;-90
2023/07/11 07:30:34;;;;;;;4.00;3.50;;;;;;;;;;4989369;28;20473;-91
2023/07/11 07:33:03;;;;;;;3.30;3.00;;;23.10;1.00;;;;;;4985908;28;20456;-92
2023/07/11 07:35:30;;;;;;;3.03;2.83;;;23.10;1.00;;;;;;4986450;28;20571;-91
2023/07/11 07:37:56;;;;;;;3.63;3.10;;;22.90;1.00;;;;;;4984986;28;20460;-91
2023/07/11 07:40:24;;;;;;;5.10;3.90;;;;;;;;;;4985334;28;20488;-90
2023/07/11 07:42:53;;;;;;;3.63;3.33;;;23.30;1.00;;;;;;4987269;28;20969;-90
2023/07/11 07:45:20;;;;;;;6.67;3.73;;;;;;;;;;4985228;28;20525;-90
2023/07/11 07:47:47;;;;;;;7.90;3.60;;;;;;;;;;4988153;28;20469;-91
2023/07/11 07:50:21;;;;;;;3.97;2.93;;;23.30;1.00;;;;;;4985512;28;20512;-91
2023/07/11 07:52:49;;;;;;;3.40;3.10;;;;;;;;;;4984960;28;20545;-91
2023/07/11 07:55:17;;;;;;;3.53;3.13;;;;;;;;;;4985362;28;20522;-91
2023/07/11 07:57:47;;;;;;;4.13;2.53;;;23.40;1.00;;;;;;4984439;28;20457;-91
2023/07/11 08:00:14;;;;;;;4.30;3.13;;;23.20;74.90;;;;;;4983759;28;20450;-91
2023/07/11 08:02:42;;;;;;;3.93;2.97;;;;;;;;;;4989437;28;20468;-91
2023/07/11 08:05:12;;;;;;;4.13;2.70;;;;;;;;;;4990719;28;20531;-92
2023/07/11 08:07:41;;;;;;;4.70;3.30;;;23.70;1.00;;;;;;4986280;28;20413;-92
2023/07/11 08:10:09;;;;;;;5.67;3.17;;;23.40;99.90;;;;;;4989444;28;20497;-91
2023/07/11 08:12:35;;;;;;;3.10;2.80;;;23.80;1.00;;;;;;4986249;28;20467;-91
2023/07/11 08:15:03;;;;;;;3.00;2.70;;;;;;;;;;4984279;28;21005;-91
2023/07/11 08:17:31;;;;;;;2.97;2.50;;;;;;;;;;4984381;28;20488;-92
2023/07/11 08:19:58;;;;;;;3.87;2.80;;;;;;;;;;4983057;28;20461;-92
2023/07/11 08:22:25;;;;;;;3.90;2.37;;;;;;;;;;4990504;28;20422;-91
2023/07/11 08:24:56;;;;;;;3.93;2.83;;;24.20;99.90;;;;;;4986130;28;20448;-91
2023/07/11 08:27:23;;;;;;;2.43;1.60;;;24.00;1.00;;;;;;4985078;28;20446;-92
2023/07/11 08:29:50;;;;;;;5.23;2.57;;;;;;;;;;4992190;28;20462;-92
2023/07/11 08:32:19;;;;;;;3.20;2.23;;;23.90;1.00;;;;;;5000608;28;20434;-93
2023/07/11 08:34:46;;;;;;;2.63;2.43;;;23.90;97.10;;;;;;5000402;28;20472;-91
2023/07/11 08:37:14;;;;;;;3.17;2.87;;;;;;;;;;4996169;28;20461;-92
2023/07/11 08:39:41;;;;;;;4.70;2.53;;;23.90;1.00;;;;;;4989633;28;20442;-91
2023/07/11 08:42:19;;;;;;;4.57;2.43;;;24.20;1.00;;;;;;4989813;28;20457;-90
2023/07/11 08:44:52;;;;;;;2.40;2.20;;;24.20;1.00;;;;;;4990198;28;20430;-92
2023/07/11 08:47:23;;;;;;;3.00;1.60;;;24.30;1.00;;;;;;4995160;28;20461;-92
2023/07/11 08:49:56;;;;;;;2.80;1.80;;;24.50;1.00;;;;;;5000631;28;20433;-92
2023/07/11 08:52:26;;;;;;;3.43;2.00;;;24.30;99.90;;;;;;4989969;28;20441;-92
2023/07/11 08:54:59;;;;;;;6.23;2.20;;;24.50;1.00;;;;;;4990723;28;20477;-92
2023/07/11 08:57:30;;;;;;;4.30;1.70;;;24.50;99.90;;;;;;4986778;28;20481;-92
2023/07/11 09:00:12;;;;;;;2.50;2.10;;;24.80;1.00;;;;;;4985231;28;20473;-92
2023/07/11 09:02:46;;;;;;;5.47;1.90;;;24.40;99.90;;;;;;4989244;28;20464;-92
2023/07/11 09:05:19;;;;;;;2.73;2.03;;;24.50;99.90;;;;;;4989913;28;20449;-92
2023/07/11 09:07:46;;;;;;;2.20;2.00;;;;;;;;;;4990228;28;20434;-92
2023/07/11 09:10:34;;;;;;;3.73;2.23;;;24.60;1.00;;;;;;4992391;28;20564;-92
2023/07/11 09:13:23;;;;;;;3.63;2.30;;;24.70;1.00;;;;;;4990092;28;20453;-93
2023/07/11 09:15:59;;;;;;;3.00;1.80;;;24.60;99.90;;;;;;4992639;28;20513;-91
2023/07/11 09:19:07;;;;;;;5.37;2.10;;;24.60;99.90;;;;;;4993723;28;20445;-92
2023/07/11 09:21:41;;;;;;;2.50;1.90;;;24.70;99.90;;;;;;4999617;28;20458;-92
2023/07/11 09:24:19;;;;;;;4.33;2.30;;;24.80;99.90;;;;;;4995363;28;20497;-92
2023/07/11 09:26:48;;;;;;;3.83;2.43;;;25.00;99.90;;;;;;4998691;28;20461;-92
2023/07/11 09:29:18;;;;;;;2.97;2.20;;;25.00;1.00;;;;;;4988890;28;20934;-93
2023/07/11 09:31:50;;;;;;;5.03;2.23;;;25.00;1.00;;;;;;4985870;28;20508;-92
2023/07/11 09:34:22;;;;;;;3.67;1.70;;;25.00;1.00;;;;;;4989304;28;20473;-92
2023/07/11 09:36:51;;;;;;;6.80;3.43;;;25.10;99.90;;;;;;4993781;28;20485;-92
2023/07/11 09:39:28;;;;;;;3.50;2.10;;;25.20;99.90;;;;;;4995198;28;20437;-93
2023/07/11 09:42:05;;;;;;;3.10;2.20;;;25.40;1.00;;;;;;5000013;28;20525;-92
2023/07/11 09:44:33;;;;;;;8.03;2.57;;;25.30;1.00;;;;;;5000002;28;20436;-92
2023/07/11 09:47:16;;;;;;;4.50;3.23;;;25.70;1.00;;;;;;4995414;28;20480;-92
2023/07/11 09:49:45;;;;;;;3.90;2.30;;;25.40;99.90;;;;;;4994807;28;20441;-92
2023/07/11 09:52:21;;;;;;;4.00;2.47;;;25.40;99.90;;;;;;4994145;28;20441;-91
2023/07/11 09:54:48;;;;;;;4.00;2.00;;;;;;;;;;4996194;28;20445;-92
2023/07/11 09:57:17;;;;;;;2.43;2.20;;;25.30;1.00;;;;;;4997811;28;20434;-92
2023/07/11 09:59:54;;;;;;;3.77;2.20;;;25.70;99.90;;;;;;4998870;28;20434;-93
2023/07/11 10:02:23;;;;;;;4.03;3.60;;;25.70;99.90;;;;;;4999282;28;20432;-92
2023/07/11 10:04:51;;;;;;;2.47;2.27;;;;;;;;;;4988472;28;20945;-92
2023/07/11 10:07:23;;;;;;;4.23;3.13;;;25.70;99.90;;;;;;4985611;28;20500;-92
2023/07/11 10:09:59;;;;;;;2.33;2.00;;;25.60;99.90;;;;;;4984818;28;20556;-92
2023/07/11 10:12:27;;;;;;;3.00;2.40;;;;;;;;;;4987779;28;20434;-92
2023/07/11 10:14:58;;;;;;;4.20;2.57;;;26.00;1.00;;;;;;4986788;28;20434;-92
2023/07/11 10:17:33;;;;;;;6.50;2.33;;;25.90;99.90;;;;;;4987457;28;20434;-92
2023/07/11 10:20:02;;;;;;;3.27;2.47;;;26.00;99.90;;;;;;4984163;28;20460;-92
2023/07/11 10:22:31;;;;;;;5.10;2.27;;;26.10;99.90;;;;;;4985787;28;20437;-92
2023/07/11 10:25:01;;;;;;;3.30;2.70;;;26.20;99.90;;;;;;4989141;28;20441;-92
2023/07/11 10:27:35;;;;;;;4.23;3.57;;;26.20;99.90;;;;;;4984150;28;20442;-92
2023/07/11 10:30:05;;;;;;;2.47;2.27;;;26.40;99.90;;;;;;4985654;28;20473;-92
2023/07/11 10:32:36;;;;;;;3.87;2.97;;;26.30;99.90;;;;;;4984014;28;20470;-92
2023/07/11 10:35:10;;;;;;;3.57;2.70;;;26.30;99.90;;;;;;4984610;28;20437;-91
2023/07/11 10:37:41;;;;;;;4.70;2.73;;;26.20;99.90;;;;;;4984149;28;20559;-91
2023/07/11 10:40:17;;;;;;;3.00;2.80;;;26.20;99.90;;;;;;4990804;28;20496;-92
2023/07/11 10:42:50;;;;;;;3.30;3.00;;;26.20;99.90;;;;;;4996389;28;20444;-92
2023/07/11 10:45:26;;;;;;;3.90;3.40;;;26.20;99.90;;;;;;4998804;28;20464;-93
2023/07/11 10:48:01;;;;;;;4.30;3.30;;;26.30;99.90;;;;;;4998983;28;20421;-92
2023/07/11 10:50:37;;;;;;;3.10;2.67;;;26.20;99.90;;;;;;4995776;28;20470;-91
2023/07/11 10:53:24;;;;;;;6.17;4.37;;;26.20;99.90;;;;;;4992274;28;20472;-92
2023/07/11 10:56:09;;;;;;;3.83;3.40;;;26.30;99.90;;;;;;4988491;28;20840;-94
2023/07/11 10:58:37;;;;;;;6.30;3.30;;;26.30;99.90;;;;;;4986635;28;20445;-91
2023/07/11 11:01:16;;;;;;;3.80;3.40;;;26.30;99.90;;;;;;4998380;28;20472;-92
2023/07/11 11:03:45;;;;;;;4.00;3.23;;;26.40;99.90;;;;;;4997954;28;20436;-93
2023/07/11 11:06:38;;;;;;;4.03;3.27;;;26.80;1.00;;;;;;4985059;28;20438;-92
2023/07/11 11:09:15;;;;;;;3.93;3.63;;;26.50;99.90;;;;;;4980091;28;20456;-92
2023/07/11 11:11:53;;;;;;;6.50;3.90;;;26.50;99.90;;;;;;5071005;23;20514;-91
2023/07/11 11:17:52;;;;;;;7.00;3.40;;;26.50;99.90;;;;;;4939163;28;20492;-91
2023/07/11 11:21:05;;;;;;;6.40;3.50;;;26.50;99.90;;;;;;4996873;28;20464;-91
2023/07/11 11:23:58;;;;;;;3.57;3.27;;;26.70;99.90;;;;;;4939072;28;20468;-91
2023/07/11 11:27:20;;;;;;;4.27;3.30;;;26.40;1.00;;;;;;5000140;28;20520;-91
2023/07/11 11:30:38;;;;;;;3.50;3.20;;;26.70;99.90;;;;;;5001196;28;20563;-91
2023/07/11 11:33:42;;;;;;;4.00;3.70;;;26.70;99.90;;;;;;4994757;28;20452;-90
2023/07/11 11:36:23;;;;;;;7.90;3.60;;;26.70;99.90;;;;;;4999345;28;20476;-90
2023/07/11 11:39:04;;;;;;;3.23;3.00;;;27.00;1.00;;;;;;5001220;28;20456;-90
2023/07/11 11:41:37;;;;;;;4.73;3.33;;;26.70;99.90;;;;;;5000324;28;20452;-91
2023/07/11 11:44:15;;;;;;;3.27;2.97;;;26.70;99.90;;;;;;5002159;28;20417;-91
2023/07/11 11:46:46;;;;;;;7.73;3.27;;;26.90;99.90;;;;;;5014203;28;20448;-91
2023/07/11 11:49:33;;;;;;;3.60;3.30;;;27.00;99.90;;;;;;5017863;28;20410;-91
2023/07/11 11:55:47;;;;;;;3.80;3.07;;;27.20;99.90;;;;;;5005504;28;20440;-91
2023/07/11 11:58:39;;;;;;;5.10;3.40;;;27.20;99.90;;;;;;4998588;28;20430;-92
2023/07/11 12:01:38;;;;;;;4.87;4.40;;;27.20;99.90;;;;;;5001941;28;20481;-90
2023/07/11 12:04:54;;;;;;;5.30;3.63;;;27.50;1.00;;;;;;5003496;28;20452;-91
2023/07/11 12:07:32;;;;;;;8.67;4.57;;;27.20;99.90;;;;;;5011936;28;20479;-91
2023/07/11 12:10:27;;;;;;;3.93;3.53;;;27.00;1.00;;;;;;5301571;23;20519;-91
2023/07/11 12:13:19;;;;;;;3.03;2.83;;;27.30;99.90;;;;;;5004211;28;20463;-91
2023/07/11 12:15:59;;;;;;;4.77;4.33;;;27.30;99.90;;;;;;5011932;28;20459;-92
2023/07/11 12:18:57;;;;;;;4.17;3.80;;;27.40;99.90;;;;;;5004123;28;20472;-92
2023/07/11 12:21:45;;;;;;;4.30;3.90;;;27.50;99.90;;;;;;4951757;28;20503;-91
2023/07/11 17:06:23;;;;;;;10.00;5.63;;;27.90;1.00;;;;;;4683503;23;20484;-92
2023/07/11 17:08:52;;;;;;;6.17;5.50;;;;;;;;;;4931750;29;20413;-92
2023/07/11 17:11:19;;;;;;;8.63;6.47;;;;;;;;;;4930810;29;20432;-92
2023/07/11 17:13:47;;;;;;;6.00;5.50;;;;;;;;;;4932347;29;20456;-92
2023/07/11 17:16:15;;;;;;;5.70;5.10;;;;;;;;;;4936928;29;20496;-92
2023/07/11 17:18:42;;;;;;;6.57;5.73;;;;;;;;;;4935967;29;20479;-92
2023/07/11 17:21:16;;;;;;;6.93;6.10;;;28.20;99.90;;;;;;4937913;29;20503;-92
2023/07/11 17:23:44;;;;;;;6.27;5.60;;;;;;;;;;4936713;29;20508;-92
2023/07/11 17:26:13;;;;;;;5.50;5.00;;;28.00;99.90;;;;;;4930349;29;20500;-93
2023/07/11 17:28:41;;;;;;;6.30;5.70;;;;;;;;;;4931082;29;20452;-93
2023/07/11 17:31:09;;;;;;;7.90;6.07;;;27.90;99.90;;;;;;4933880;29;20504;-92
2023/07/11 17:36:45;;;;;;;6.67;5.83;;;27.90;1.00;;;;;;5155892;27;20561;-93
2023/07/11 17:39:15;;;;;;;6.80;5.70;;;27.90;99.90;;;;;;5157247;27;20442;-93
2023/07/11 17:41:42;;;;;;;8.60;7.10;;;;;;;;;;5156933;27;20422;-93
2023/07/11 17:44:14;;;;;;;8.00;7.20;;;27.80;99.90;;;;;;5156381;27;20447;-93
2023/07/11 17:46:42;;;;;;;16.37;14.70;;;;;;;;;;5136715;27;20461;-93
2023/07/11 17:49:13;;;;;;;9.30;8.40;;;;;;;;;;5136060;27;20518;-93
2023/07/11 17:51:44;;;;;;;8.10;7.40;;;27.90;1.00;;;;;;5136210;27;20510;-91
2023/07/11 17:54:11;;;;;;;6.50;5.85;;;;;;;;;;5135857;27;20451;-91
2023/07/11 17:56:38;;;;;;;7.13;6.50;;;27.40;1.00;;;;;;5135785;27;20495;-91
2023/07/11 17:59:06;;;;;;;6.30;5.70;;;;;;;;;;5135408;27;20434;-91
2023/07/11 18:01:36;;;;;;;7.50;5.30;;;27.30;1.00;;;;;;5133267;27;20503;-91
2023/07/11 18:04:03;;;;;;;6.10;5.53;;;;;;;;;;5135534;27;20419;-91
2023/07/11 18:06:34;;;;;;;6.80;6.20;;;27.50;99.90;;;;;;5135571;27;20435;-92
2023/07/11 18:09:05;;;;;;;7.37;6.00;;;27.40;99.90;;;;;;5135357;27;20424;-91
2023/07/11 18:11:33;;;;;;;8.20;6.80;;;;;;;;;;5135908;27;20424;-91
2023/07/11 18:14:01;;;;;;;8.37;7.57;;;;;;;;;;5135675;27;20427;-91
2023/07/11 18:16:30;;;;;;;7.40;6.60;;;27.30;99.90;;;;;;5135755;27;20526;-91
2023/07/11 18:18:58;;;;;;;10.50;6.13;;;27.50;1.00;;;;;;5135919;27;20423;-90
2023/07/11 18:21:26;;;;;;;6.90;4.80;;;;;;;;;;5135942;27;20420;-90
2023/07/11 18:23:53;;;;;;;9.60;6.87;;;;;;;;;;5135868;27;20434;-90
2023/07/11 18:26:22;;;;;;;7.73;5.93;;;27.20;99.90;;;;;;5135746;27;20485;-90
2023/07/11 18:28:52;;;;;;;5.57;5.03;;;27.50;1.00;;;;;;5135576;27;20486;-91
2023/07/11 18:31:21;;;;;;;8.03;7.00;;;27.20;99.90;;;;;;5135506;27;20447;-90
2023/07/11 18:33:52;;;;;;;7.93;5.77;;;27.50;1.00;;;;;;5135957;27;20436;-91
2023/07/11 18:36:29;;;;;;;6.43;5.83;;;27.10;99.90;;;;;;5135418;27;20554;-89
2023/07/11 18:38:57;;;;;;;9.17;6.10;;;29.10;99.90;;;;;;5135429;27;20446;-89
2023/07/11 18:41:26;;;;;;;8.93;7.67;;;27.00;99.90;;;;;;5135176;27;20444;-91
2023/07/11 18:43:58;;;;;;;5.70;5.20;;;27.30;1.00;;;;;;5135311;27;20439;-90
2023/07/11 18:46:26;;;;;;;7.00;6.30;;;;;;;;;;5129617;27;20464;-92
2023/07/11 18:49:12;;;;;;;7.93;6.60;;;26.90;99.90;;;;;;5121308;28;20446;-91
2023/07/11 18:51:41;;;;;;;8.90;6.90;;;;;;;;;;5120010;28;20436;-93
2023/07/11 18:54:09;;;;;;;7.40;6.17;;;;;;;;;;5120901;28;20434;-92
2023/07/11 18:56:38;;;;;;;10.40;8.30;;;26.70;99.90;;;;;;5119980;28;20476;-92
2023/07/11 19:01:56;;;;;;;7.50;6.73;;;26.50;1.00;;;;;;5115694;28;20424;-91
2023/07/11 19:04:34;;;;;;;6.67;5.90;;;26.60;99.90;;;;;;5121398;28;20427;-90
2023/07/11 19:07:03;;;;;;;7.53;6.80;;;26.20;1.00;;;;;;5101533;28;20405;-91
2023/07/11 19:09:30;;;;;;;8.17;6.50;;;;;;;;;;5100562;28;20460;-91
2023/07/11 19:12:00;;;;;;;7.47;6.80;;;26.60;99.90;;;;;;5101207;28;20418;-91
2023/07/11 19:14:30;;;;;;;7.33;6.63;;;;;;;;;;5101192;28;20483;-92
2023/07/11 19:17:01;;;;;;;6.90;6.03;;;26.00;1.00;;;;;;5101091;28;20428;-90
2023/07/11 19:19:31;;;;;;;7.93;7.13;;;26.80;1.00;;;;;;5101125;28;20422;-91
2023/07/11 19:22:00;;;;;;;8.60;7.40;;;26.40;1.00;;;;;;5101005;28;20436;-90
2023/07/11 19:24:38;;;;;;;8.50;7.20;;;26.20;1.00;;;;;;5100586;28;20453;-91
2023/07/11 19:27:17;;;;;;;8.53;7.73;;;26.40;99.90;;;;;;5100840;28;20459;-92
2023/07/11 19:29:45;;;;;;;7.10;6.40;;;;;;;;;;5100794;28;20428;-91
2023/07/11 19:32:14;;;;;;;9.20;7.13;;;26.00;1.00;;;;;;5100530;28;20437;-93
2023/07/11 19:34:51;;;;;;;8.70;7.90;;;26.50;1.00;;;;;;5100332;28;20495;-91
2023/07/11 19:37:19;;;;;;;8.40;7.50;;;26.30;99.90;;;;;;5098353;28;20436;-91
2023/07/11 19:39:48;;;;;;;12.33;9.47;;;26.20;99.90;;;;;;5095847;28;20512;-91
2023/07/11 19:42:21;;;;;;;8.40;6.90;;;26.10;99.90;;;;;;5096424;28;20429;-91
2023/07/11 19:44:49;;;;;;;6.77;6.17;;;;;;;;;;5098533;28;20456;-91
2023/07/11 19:47:19;;;;;;;9.77;8.07;;;26.10;99.90;;;;;;5095606;28;20463;-91
2023/07/11 19:49:47;;;;;;;7.80;7.00;;;;;;;;;;5095763;28;20428;-91
2023/07/11 19:52:14;;;;;;;7.13;6.53;;;;;;;;;;5100352;28;20432;-90
2023/07/11 19:54:41;;;;;;;7.70;7.00;;;;;;;;;;5098436;28;20472;-91
2023/07/11 19:57:16;;;;;;;8.30;5.93;;;25.90;99.90;;;;;;5091936;28;20455;-92
2023/07/11 19:59:45;;;;;;;10.33;8.77;;;25.90;99.90;;;;;;5088956;28;20413;-90
2023/07/11 20:02:15;;;;;;;11.63;7.90;;;25.90;99.90;;;;;;5092877;28;20429;-91
2023/07/11 20:04:42;;;;;;;9.20;6.77;;;;;;;;;;5099702;28;20539;-91
2023/07/11 20:07:11;;;;;;;10.73;8.60;;;25.80;99.90;;;;;;5099667;28;20455;-90
2023/07/11 20:09:38;;;;;;;14.73;10.43;;;25.80;99.90;;;;;;5095743;28;20481;-93
2023/07/11 20:12:31;;;;;;;14.73;9.50;;;25.80;99.90;;;;;;5093553;28;20428;-92
2023/07/11 20:15:00;;;;;;;12.03;9.23;;;25.70;99.90;;;;;;5090837;28;20567;-91
2023/07/11 20:17:27;;;;;;;12.47;8.27;;;25.70;99.90;;;;;;5089095;28;20578;-91
2023/07/11 20:19:55;;;;;;;8.87;7.97;;;25.60;99.90;;;;;;5088176;28;20460;-91
2023/07/11 20:22:22;;;;;;;9.97;8.60;;;;;;;;;;5096781;28;20446;-92
2023/07/11 20:24:52;;;;;;;8.50;7.50;;;25.90;1.00;;;;;;5092793;28;20450;-92
2023/07/11 20:27:21;;;;;;;7.83;6.80;;;25.50;99.90;;;;;;5089651;28;20449;-91
2023/07/11 20:29:49;;;;;;;6.23;5.73;;;;;;;;;;5092441;28;20417;-92
2023/07/11 20:32:21;;;;;;;6.93;6.23;;;25.60;99.90;;;;;;5090649;28;20460;-93
2023/07/11 20:34:49;;;;;;;6.27;5.67;;;;;;;;;;5091353;28;20484;-91
2023/07/11 20:37:17;;;;;;;6.80;6.03;;;25.50;99.90;;;;;;5089804;28;20469;-91
2023/07/11 20:39:45;;;;;;;6.70;6.10;;;25.50;99.90;;;;;;5090777;28;20440;-91
2023/07/11 20:42:12;;;;;;;8.03;6.40;;;;;;;;;;5090928;28;20452;-93
2023/07/11 20:44:40;;;;;;;7.40;6.00;;;;;;;;;;5093352;28;20473;-92
2023/07/11 20:47:14;;;;;;;8.23;5.97;;;25.40;99.90;;;;;;5087443;28;20495;-92
2023/07/11 20:49:42;;;;;;;7.10;5.90;;;25.30;99.90;;;;;;5089970;28;20419;-92
2023/07/11 20:52:12;;;;;;;9.00;5.83;;;;;;;;;;5085121;28;20448;-92
2023/07/11 20:54:39;;;;;;;10.03;6.93;;;;;;;;;;5084988;28;20477;-92
2023/07/11 20:57:15;;;;;;;8.63;6.70;;;25.20;99.90;;;;;;5082885;28;20481;-92
2023/07/11 20:59:42;;;;;;;7.70;6.43;;;;;;;;;;5084206;28;20436;-92
2023/07/11 21:02:15;;;;;;;8.27;7.47;;;25.20;99.90;;;;;;5082340;28;20437;-92
2023/07/11 21:04:44;;;;;;;9.37;8.47;;;25.20;99.90;;;;;;5085278;28;20473;-91
2023/07/11 21:07:16;;;;;;;7.43;6.77;;;25.20;99.90;;;;;;5083582;28;20437;-91
2023/07/11 21:09:44;;;;;;;6.83;6.13;;;;;;;;;;5083454;28;20414;-91
2023/07/11 21:12:12;;;;;;;6.63;6.03;;;25.00;99.90;;;;;;5085516;28;20439;-91
2023/07/11 21:14:43;;;;;;;6.47;5.87;;;25.00;99.90;;;;;;5082616;28;20448;-92
2023/07/11 21:17:14;;;;;;;6.33;5.73;;;25.00;99.90;;;;;;5083908;28;20538;-92
2023/07/11 21:19:43;;;;;;;5.80;5.30;;;25.00;99.90;;;;;;5090783;28;20433;-91
2023/07/11 21:22:15;;;;;;;7.27;5.13;;;25.00;99.90;;;;;;5098433;28;20435;-90
2023/07/11 21:24:42;;;;;;;6.60;5.93;;;;;;;;;;5092763;28;20484;-92
2023/07/11 21:27:11;;;;;;;7.83;5.63;;;24.90;99.90;;;;;;5092916;28;20436;-93
2023/07/11 21:29:48;;;;;;;6.07;5.47;;;24.90;99.90;;;;;;5091112;28;20449;-92
2023/07/11 21:32:19;;;;;;;5.73;5.23;;;24.90;99.90;;;;;;5089140;28;20436;-90
2023/07/11 21:34:47;;;;;;;6.07;5.47;;;24.90;99.90;;;;;;5092975;28;20509;-88
2023/07/11 21:37:15;;;;;;;6.40;5.90;;;24.90;99.90;;;;;;5088650;28;20516;-90
2023/07/11 21:39:44;;;;;;;8.60;6.10;;;;;;;;;;5082674;28;20527;-90
2023/07/11 21:42:11;;;;;;;6.77;5.50;;;24.80;99.90;;;;;;5085840;28;20463;-90
2023/07/11 21:44:38;;;;;;;10.67;8.27;;;;;;;;;;5086518;28;20468;-90
2023/07/11 21:47:05;;;;;;;5.97;5.47;;;24.70;99.90;;;;;;5092820;28;20487;-91
2023/07/11 21:49:32;;;;;;;6.50;5.90;;;;;;;;;;5082037;28;20444;-91
2023/07/11 21:52:01;;;;;;;6.30;5.67;;;24.70;99.90;;;;;;5080823;28;20475;-91
2023/07/11 21:54:28;;;;;;;6.17;5.67;;;;;;;;;;5084318;28;20478;-91
2023/07/11 21:56:55;;;;;;;6.40;5.80;;;24.60;99.90;;;;;;5080828;28;20584;-92
2023/07/11 21:59:23;;;;;;;8.37;5.80;;;24.60;99.90;;;;;;5079582;28;20523;-91
2023/07/11 22:01:50;;;;;;;6.00;5.47;;;24.50;99.90;;;;;;5081161;28;20476;-92
2023/07/11 22:04:16;;;;;;;5.77;5.20;;;24.50;1.00;;;;;;5088984;28;20443;-89
2023/07/11 22:06:43;;;;;;;11.70;8.33;;;24.50;99.90;;;;;;5098469;28;20432;-90
2023/07/11 22:09:18;;;;;;;8.03;6.57;;;24.50;99.90;;;;;;5089255;28;20483;-91
2023/07/11 22:11:45;;;;;;;5.57;4.73;;;24.50;99.90;;;;;;5087160;28;20436;-92
2023/07/11 22:14:12;;;;;;;7.27;6.30;;;;;;;;;;5087041;28;20441;-91
2023/07/11 22:16:40;;;;;;;7.23;6.10;;;;;;;;;;5083801;28;20482;-91
2023/07/11 22:19:07;;;;;;;7.40;5.57;;;;;;;;;;5090861;28;20608;-92
2023/07/11 22:21:35;;;;;;;6.50;5.90;;;;;;;;;;5098414;28;20429;-91
2023/07/11 22:24:03;;;;;;;13.00;5.97;;;;;;;;;;5102105;28;20458;-92
2023/07/11 22:26:32;;;;;;;6.57;5.90;;;24.40;99.90;;;;;;5095106;28;20933;-92
2023/07/11 22:29:00;;;;;;;5.43;4.93;;;24.30;99.90;;;;;;5090012;28;20463;-92
2023/07/11 22:31:30;;;;;;;6.13;4.70;;;24.30;99.90;;;;;;5088319;28;20928;-91
2023/07/11 22:33:58;;;;;;;5.47;5.07;;;;;;;;;;5085531;28;20460;-92
2023/07/11 22:36:25;;;;;;;6.40;5.00;;;;;;;;;;5081968;28;20570;-92
2023/07/11 22:38:52;;;;;;;5.67;5.10;;;24.30;99.90;;;;;;5084440;28;20543;-92
2023/07/11 22:41:19;;;;;;;7.57;6.17;;;24.20;99.90;;;;;;5083743;28;20883;-90
2023/07/11 22:43:47;;;;;;;6.07;5.47;;;24.40;1.00;;;;;;5083685;28;20453;-90
2023/07/11 22:46:19;;;;;;;6.27;5.20;;;23.60;99.90;;;;;;5085796;28;20465;-90
2023/07/11 22:48:48;;;;;;;6.43;5.50;;;24.20;99.90;;;;;;5086644;28;20445;-91
2023/07/11 22:51:16;;;;;;;5.77;5.27;;;;;;;;;;5083861;28;20449;-90
2023/07/11 22:53:44;;;;;;;5.43;4.90;;;;;;;;;;5087405;28;20910;-90
2023/07/11 22:56:16;;;;;;;6.43;5.23;;;24.10;99.90;;;;;;5084215;28;20480;-91
2023/07/11 22:58:44;;;;;;;7.47;5.83;;;;;;;;;;5087186;28;20520;-91
2023/07/11 23:01:15;;;;;;;6.00;5.27;;;24.10;99.90;;;;;;5086645;28;20432;-91
2023/07/11 23:03:42;;;;;;;6.00;5.50;;;;;;;;;;5085772;28;20437;-92
2023/07/11 23:06:16;;;;;;;5.63;5.07;;;24.10;99.90;;;;;;5082503;28;20509;-89
2023/07/11 23:08:44;;;;;;;5.30;4.83;;;;;;;;;;5084631;28;20449;-90
2023/07/11 23:11:12;;;;;;;6.47;5.83;;;;;;;;;;5098739;28;20472;-91
2023/07/11 23:13:39;;;;;;;7.07;5.27;;;;;;;;;;5101254;28;20409;-89
2023/07/11 23:16:14;;;;;;;5.57;4.93;;;24.30;1.00;;;;;;5100908;28;20533;-91
2023/07/11 23:18:42;;;;;;;5.93;5.30;;;;;;;;;;5091027;28;20459;-92
2023/07/11 23:21:11;;;;;;;5.33;4.83;;;24.00;99.90;;;;;;5083111;28;20445;-91
2023/07/11 23:23:40;;;;;;;5.50;5.10;;;;;;;;;;5082542;28;20445;-91
2023/07/11 23:26:13;;;;;;;5.30;4.90;;;23.90;99.90;;;;;;5082628;28;20457;-90
2023/07/11 23:28:41;;;;;;;11.10;4.70;;;;;;;;;;5084865;28;20464;-90
2023/07/11 23:31:13;;;;;;;6.87;5.57;;;23.90;99.90;;;;;;5091555;28;20445;-89